sensor_id;sensor_type;location;lat;lon;timestamp;temperature;humidity
1686;DHT22;840;47.980;7.830;2023-03-01T00:01:37;0.90;99.90
1686;DHT22;840;47.980;7.830;2023-03-01T00:04:04;0.80;99.90
1686;DHT22;840;47.980;7.830;2023-03-01T00:06:31;0.80;99.90
1686;DHT22;840;47.980;7.830;2023-03-01T00:08:58;0.70;99.90
1686;DHT22;840;47.980;7.830;2023-03-01T00:11:27;0.70;99.90
1686;DHT22;840;47.980;7.830;2023-03-01T00:13:56;0.70;99.90
1686;DHT22;840;47.980;7.830;2023-03-01T00:16:28;0.70;99.90
1686;DHT22;840;47.980;7.830;2023-03-01T00:18:57;0.70;99.90
1686;DHT22;840;47.980;7.830;2023-03-01T00:21:25;0.70;99.90
1686;DHT22;840;47.980;7.830;2023-03-01T00:23:53;0.70;99.90
1686;DHT22;840;47.980;7.830;2023-03-01T00:26:21;0.60;99.90
1686;DHT22;840;47.980;7.830;2023-03-01T00:28:49;0.60;99.90
1686;DHT22;840;47.980;7.830;2023-03-01T00:31:19;0.60;99.90
1686;DHT22;840;47.980;7.830;2023-03-01T00:34:04;0.60;99.90
1686;DHT22;840;47.980;7.830;2023-03-01T00:36:33;0.60;99.90
1686;DHT22;840;47.980;7.830;2023-03-01T00:39:01;0.60;99.90
1686;DHT22;840;47.980;7.830;2023-03-01T00:41:29;0.50;99.90
1686;DHT22;840;47.980;7.830;2023-03-01T00:43:56;0.60;99.90
1686;DHT22;840;47.980;7.830;2023-03-01T00:46:25;0.50;99.90
1686;DHT22;840;47.980;7.830;2023-03-01T00:48:52;0.50;99.90
1686;DHT22;840;47.980;7.830;2023-03-01T00:51:25;0.50;99.90
1686;DHT22;840;47.980;7.830;2023-03-01T00:53:53;0.50;99.90
1686;DHT22;840;47.980;7.830;2023-03-01T00:56:20;0.50;99.90
1686;DHT22;840;47.980;7.830;2023-03-01T00:58:47;0.50;99.90
1686;DHT22;840;47.980;7.830;2023-03-01T01:01:16;0.50;99.90
1686;DHT22;840;47.980;7.830;2023-03-01T01:03:47;0.50;99.90
1686;DHT22;840;47.980;7.830;2023-03-01T01:06:18;0.40;99.90
1686;DHT22;840;47.980;7.830;2023-03-01T01:08:49;0.40;99.90
1686;DHT22;840;47.980;7.830;2023-03-01T01:11:17;0.40;99.90
1686;DHT22;840;47.980;7.830;2023-03-01T01:13:45;0.40;99.90
1686;DHT22;840;47.980;7.830;2023-03-01T01:16:14;0.40;99.90
1686;DHT22;840;47.980;7.830;2023-03-01T01:18:41;0.40;99.90
1686;DHT22;840;47.980;7.830;2023-03-01T01:21:09;0.40;99.90
1686;DHT22;840;47.980;7.830;2023-03-01T01:23:38;0.40;99.90
1686;DHT22;840;47.980;7.830;2023-03-01T01:26:09;0.30;99.90
1686;DHT22;840;47.980;7.830;2023-03-01T01:28:36;0.30;99.90
1686;DHT22;840;47.980;7.830;2023-03-01T01:31:04;0.20;99.90
1686;DHT22;840;47.980;7.830;2023-03-01T01:33:32;0.20;99.90
1686;DHT22;840;47.980;7.830;2023-03-01T01:35:59;0.20;99.90
1686;DHT22;840;47.980;7.830;2023-03-01T01:38:26;0.20;99.90
1686;DHT22;840;47.980;7.830;2023-03-01T01:40:54;0.20;99.90
1686;DHT22;840;47.980;7.830;2023-03-01T01:43:28;0.20;99.90
1686;DHT22;840;47.980;7.830;2023-03-01T01:45:58;0.20;99.90
1686;DHT22;840;47.980;7.830;2023-03-01T01:48:35;0.20;99.90
1686;DHT22;840;47.980;7.830;2023-03-01T01:51:09;0.20;99.90
1686;DHT22;840;47.980;7.830;2023-03-01T01:53:38;0.20;99.90
1686;DHT22;840;47.980;7.830;2023-03-01T01:56:08;0.20;99.90
1686;DHT22;840;47.980;7.830;2023-03-01T01:58:38;0.10;99.90
1686;DHT22;840;47.980;7.830;2023-03-01T02:01:07;0.20;99.90
1686;DHT22;840;47.980;7.830;2023-03-01T02:03:39;0.20;99.90
1686;DHT22;840;47.980;7.830;2023-03-01T02:06:15;0.20;99.90
1686;DHT22;840;47.980;7.830;2023-03-01T02:08:46;0.10;99.90
1686;DHT22;840;47.980;7.830;2023-03-01T02:11:14;0.10;99.90
1686;DHT22;840;47.980;7.830;2023-03-01T02:13:50;0.10;99.90
1686;DHT22;840;47.980;7.830;2023-03-01T02:16:19;0.10;99.90
1686;DHT22;840;47.980;7.830;2023-03-01T02:18:50;0.00;99.90
1686;DHT22;840;47.980;7.830;2023-03-01T02:21:31;0.00;99.90
1686;DHT22;840;47.980;7.830;2023-03-01T02:24:08;0.00;99.90
1686;DHT22;840;47.980;7.830;2023-03-01T02:26:51;0.00;99.90
1686;DHT22;840;47.980;7.830;2023-03-01T02:29:28;0.00;99.90
1686;DHT22;840;47.980;7.830;2023-03-01T02:31:59;-0.10;99.90
1686;DHT22;840;47.980;7.830;2023-03-01T02:34:31;-0.10;99.90
1686;DHT22;840;47.980;7.830;2023-03-01T02:37:06;-0.20;99.90
1686;DHT22;840;47.980;7.830;2023-03-01T02:39:40;-0.20;99.90
1686;DHT22;840;47.980;7.830;2023-03-01T02:42:20;-0.20;99.90
1686;DHT22;840;47.980;7.830;2023-03-01T02:44:51;-0.20;99.90
1686;DHT22;840;47.980;7.830;2023-03-01T02:47:22;-0.10;99.90
1686;DHT22;840;47.980;7.830;2023-03-01T02:49:52;-0.10;99.90
1686;DHT22;840;47.980;7.830;2023-03-01T02:52:30;-0.10;99.90
1686;DHT22;840;47.980;7.830;2023-03-01T02:55:08;-0.20;99.90
1686;DHT22;840;47.980;7.830;2023-03-01T02:57:38;-0.20;99.90
1686;DHT22;840;47.980;7.830;2023-03-01T03:00:12;-0.20;99.90
1686;DHT22;840;47.980;7.830;2023-03-01T03:02:49;-0.20;99.90
1686;DHT22;840;47.980;7.830;2023-03-01T03:05:20;-0.20;99.90
1686;DHT22;840;47.980;7.830;2023-03-01T03:07:53;-0.20;99.90
1686;DHT22;840;47.980;7.830;2023-03-01T03:10:25;-0.20;99.90
1686;DHT22;840;47.980;7.830;2023-03-01T03:12:59;-0.30;99.90
1686;DHT22;840;47.980;7.830;2023-03-01T03:15:45;-0.40;99.90
1686;DHT22;840;47.980;7.830;2023-03-01T03:18:15;-0.40;99.90
1686;DHT22;840;47.980;7.830;2023-03-01T03:21:02;-0.50;99.90
1686;DHT22;840;47.980;7.830;2023-03-01T03:23:39;-0.50;99.90
1686;DHT22;840;47.980;7.830;2023-03-01T03:26:10;-0.40;99.90
1686;DHT22;840;47.980;7.830;2023-03-01T03:29:01;-0.40;99.90
1686;DHT22;840;47.980;7.830;2023-03-01T03:31:51;-0.40;99.90
1686;DHT22;840;47.980;7.830;2023-03-01T03:34:22;-0.30;99.90
1686;DHT22;840;47.980;7.830;2023-03-01T03:36:53;-0.30;99.90
1686;DHT22;840;47.980;7.830;2023-03-01T03:39:37;-0.30;99.90
1686;DHT22;840;47.980;7.830;2023-03-01T03:42:14;-0.30;99.90
1686;DHT22;840;47.980;7.830;2023-03-01T03:44:52;-0.30;99.90
1686;DHT22;840;47.980;7.830;2023-03-01T03:47:46;-0.20;99.90
1686;DHT22;840;47.980;7.830;2023-03-01T03:50:22;-0.10;99.90
1686;DHT22;840;47.980;7.830;2023-03-01T03:52:57;-0.10;99.90
1686;DHT22;840;47.980;7.830;2023-03-01T03:55:27;-0.10;99.90
1686;DHT22;840;47.980;7.830;2023-03-01T03:58:02;-0.10;99.90
1686;DHT22;840;47.980;7.830;2023-03-01T04:00:34;-0.10;99.90
1686;DHT22;840;47.980;7.830;2023-03-01T04:03:19;-0.10;99.90
1686;DHT22;840;47.980;7.830;2023-03-01T04:05:53;0.00;99.90
1686;DHT22;840;47.980;7.830;2023-03-01T04:08:22;0.00;99.90
1686;DHT22;840;47.980;7.830;2023-03-01T04:10:59;0.10;99.90
1686;DHT22;840;47.980;7.830;2023-03-01T04:13:52;0.10;99.90
1686;DHT22;840;47.980;7.830;2023-03-01T04:16:27;0.10;99.90
1686;DHT22;840;47.980;7.830;2023-03-01T04:19:08;0.10;99.90
1686;DHT22;840;47.980;7.830;2023-03-01T04:21:40;0.10;99.90
1686;DHT22;840;47.980;7.830;2023-03-01T04:24:17;0.10;99.90
1686;DHT22;840;47.980;7.830;2023-03-01T04:27:00;0.00;99.90
1686;DHT22;840;47.980;7.830;2023-03-01T04:29:40;0.00;99.90
1686;DHT22;840;47.980;7.830;2023-03-01T04:32:12;0.00;99.90
1686;DHT22;840;47.980;7.830;2023-03-01T04:35:21;0.10;99.90
1686;DHT22;840;47.980;7.830;2023-03-01T04:37:50;0.10;99.90
1686;DHT22;840;47.980;7.830;2023-03-01T04:40:24;0.20;99.90
1686;DHT22;840;47.980;7.830;2023-03-01T04:42:52;0.20;99.90
1686;DHT22;840;47.980;7.830;2023-03-01T04:45:33;0.20;99.90
1686;DHT22;840;47.980;7.830;2023-03-01T04:48:09;0.30;99.90
1686;DHT22;840;47.980;7.830;2023-03-01T04:51:04;0.30;99.90
1686;DHT22;840;47.980;7.830;2023-03-01T04:53:40;0.40;99.90
1686;DHT22;840;47.980;7.830;2023-03-01T04:56:13;0.40;99.90
1686;DHT22;840;47.980;7.830;2023-03-01T04:58:54;0.40;99.90
1686;DHT22;840;47.980;7.830;2023-03-01T05:01:40;0.50;99.90
1686;DHT22;840;47.980;7.830;2023-03-01T05:04:22;0.50;99.90
1686;DHT22;840;47.980;7.830;2023-03-01T05:07:01;0.50;99.90
1686;DHT22;840;47.980;7.830;2023-03-01T05:09:34;0.50;99.90
1686;DHT22;840;47.980;7.830;2023-03-01T05:12:15;0.50;99.90
1686;DHT22;840;47.980;7.830;2023-03-01T05:14:43;0.50;99.90
1686;DHT22;840;47.980;7.830;2023-03-01T05:17:17;0.40;99.90
1686;DHT22;840;47.980;7.830;2023-03-01T05:19:51;0.40;99.90
1686;DHT22;840;47.980;7.830;2023-03-01T05:22:23;0.50;99.90
1686;DHT22;840;47.980;7.830;2023-03-01T05:24:53;0.50;99.90
1686;DHT22;840;47.980;7.830;2023-03-01T05:27:25;0.50;99.90
1686;DHT22;840;47.980;7.830;2023-03-01T05:32:45;0.40;99.90
1686;DHT22;840;47.980;7.830;2023-03-01T05:35:24;0.40;99.90
1686;DHT22;840;47.980;7.830;2023-03-01T05:37:56;0.40;99.90
1686;DHT22;840;47.980;7.830;2023-03-01T05:40:34;0.40;99.90
1686;DHT22;840;47.980;7.830;2023-03-01T05:43:03;0.30;99.90
1686;DHT22;840;47.980;7.830;2023-03-01T05:45:39;0.40;99.90
1686;DHT22;840;47.980;7.830;2023-03-01T05:48:12;0.50;99.90
1686;DHT22;840;47.980;7.830;2023-03-01T05:50:43;0.50;99.90
1686;DHT22;840;47.980;7.830;2023-03-01T05:53:28;0.50;99.90
1686;DHT22;840;47.980;7.830;2023-03-01T05:55:58;0.50;99.90
1686;DHT22;840;47.980;7.830;2023-03-01T05:58:26;0.50;99.90
1686;DHT22;840;47.980;7.830;2023-03-01T06:00:59;0.50;99.90
1686;DHT22;840;47.980;7.830;2023-03-01T06:03:39;0.50;99.90
1686;DHT22;840;47.980;7.830;2023-03-01T06:06:07;0.40;99.90
1686;DHT22;840;47.980;7.830;2023-03-01T06:08:38;0.40;99.90
1686;DHT22;840;47.980;7.830;2023-03-01T06:11:19;0.40;99.90
1686;DHT22;840;47.980;7.830;2023-03-01T06:13:55;0.30;99.90
1686;DHT22;840;47.980;7.830;2023-03-01T06:16:24;0.30;99.90
1686;DHT22;840;47.980;7.830;2023-03-01T06:19:09;0.40;99.90
1686;DHT22;840;47.980;7.830;2023-03-01T06:21:42;0.30;99.90
1686;DHT22;840;47.980;7.830;2023-03-01T06:24:44;0.10;99.90
1686;DHT22;840;47.980;7.830;2023-03-01T06:27:25;-0.10;99.90
1686;DHT22;840;47.980;7.830;2023-03-01T06:30:00;-0.20;99.90
1686;DHT22;840;47.980;7.830;2023-03-01T06:32:31;-0.40;99.90
1686;DHT22;840;47.980;7.830;2023-03-01T06:35:19;-0.30;99.90
1686;DHT22;840;47.980;7.830;2023-03-01T06:38:13;-0.40;99.90
1686;DHT22;840;47.980;7.830;2023-03-01T06:40:52;-0.40;99.90
1686;DHT22;840;47.980;7.830;2023-03-01T06:43:21;-0.30;99.90
1686;DHT22;840;47.980;7.830;2023-03-01T06:46:06;-0.30;99.90
1686;DHT22;840;47.980;7.830;2023-03-01T06:48:35;-0.30;99.90
1686;DHT22;840;47.980;7.830;2023-03-01T06:51:16;-0.30;99.90
1686;DHT22;840;47.980;7.830;2023-03-01T06:53:52;-0.20;99.90
1686;DHT22;840;47.980;7.830;2023-03-01T06:56:31;-0.20;99.90
1686;DHT22;840;47.980;7.830;2023-03-01T06:59:12;-0.10;99.90
1686;DHT22;840;47.980;7.830;2023-03-01T07:01:47;0.00;99.90
1686;DHT22;840;47.980;7.830;2023-03-01T07:04:15;0.10;99.90
1686;DHT22;840;47.980;7.830;2023-03-01T07:06:44;0.30;99.90
1686;DHT22;840;47.980;7.830;2023-03-01T07:09:22;0.30;99.90
1686;DHT22;840;47.980;7.830;2023-03-01T07:11:52;0.30;99.90
1686;DHT22;840;47.980;7.830;2023-03-01T07:14:24;0.30;99.90
1686;DHT22;840;47.980;7.830;2023-03-01T07:17:06;0.20;99.90
1686;DHT22;840;47.980;7.830;2023-03-01T07:19:36;0.20;99.90
1686;DHT22;840;47.980;7.830;2023-03-01T07:22:08;0.30;99.90
1686;DHT22;840;47.980;7.830;2023-03-01T07:24:36;0.30;99.90
1686;DHT22;840;47.980;7.830;2023-03-01T07:27:06;0.40;99.90
1686;DHT22;840;47.980;7.830;2023-03-01T07:29:34;0.40;99.90
1686;DHT22;840;47.980;7.830;2023-03-01T07:32:09;0.50;99.90
1686;DHT22;840;47.980;7.830;2023-03-01T07:35:04;0.60;99.90
1686;DHT22;840;47.980;7.830;2023-03-01T07:37:40;0.70;99.90
1686;DHT22;840;47.980;7.830;2023-03-01T07:40:12;0.60;99.90
1686;DHT22;840;47.980;7.830;2023-03-01T07:42:55;0.50;99.90
1686;DHT22;840;47.980;7.830;2023-03-01T07:45:27;0.40;99.90
1686;DHT22;840;47.980;7.830;2023-03-01T07:47:59;0.50;99.90
1686;DHT22;840;47.980;7.830;2023-03-01T07:50:30;0.50;99.90
1686;DHT22;840;47.980;7.830;2023-03-01T07:53:05;0.60;99.90
1686;DHT22;840;47.980;7.830;2023-03-01T07:55:38;0.60;99.90
1686;DHT22;840;47.980;7.830;2023-03-01T07:58:09;0.70;99.90
1686;DHT22;840;47.980;7.830;2023-03-01T08:00:43;0.60;99.90
1686;DHT22;840;47.980;7.830;2023-03-01T08:03:13;0.60;99.90
1686;DHT22;840;47.980;7.830;2023-03-01T08:05:42;0.70;99.90
1686;DHT22;840;47.980;7.830;2023-03-01T08:08:16;0.70;99.90
1686;DHT22;840;47.980;7.830;2023-03-01T08:10:52;0.80;99.90
1686;DHT22;840;47.980;7.830;2023-03-01T08:13:40;0.90;99.90
1686;DHT22;840;47.980;7.830;2023-03-01T08:16:14;0.90;99.90
1686;DHT22;840;47.980;7.830;2023-03-01T08:18:46;1.00;99.90
1686;DHT22;840;47.980;7.830;2023-03-01T08:21:15;1.00;99.90
1686;DHT22;840;47.980;7.830;2023-03-01T08:23:43;1.10;99.90
1686;DHT22;840;47.980;7.830;2023-03-01T08:26:12;1.00;99.90
1686;DHT22;840;47.980;7.830;2023-03-01T08:28:41;0.90;99.90
1686;DHT22;840;47.980;7.830;2023-03-01T08:31:19;0.90;99.90
1686;DHT22;840;47.980;7.830;2023-03-01T08:33:47;0.80;99.90
1686;DHT22;840;47.980;7.830;2023-03-01T08:36:16;0.80;99.90
1686;DHT22;840;47.980;7.830;2023-03-01T08:38:43;0.90;99.90
1686;DHT22;840;47.980;7.830;2023-03-01T08:41:11;0.90;99.90
1686;DHT22;840;47.980;7.830;2023-03-01T08:43:38;0.90;99.90
1686;DHT22;840;47.980;7.830;2023-03-01T08:46:08;0.80;99.90
1686;DHT22;840;47.980;7.830;2023-03-01T08:48:36;0.80;99.90
1686;DHT22;840;47.980;7.830;2023-03-01T08:51:08;0.90;99.90
1686;DHT22;840;47.980;7.830;2023-03-01T08:53:36;0.90;99.90
1686;DHT22;840;47.980;7.830;2023-03-01T08:56:11;1.00;99.90
1686;DHT22;840;47.980;7.830;2023-03-01T08:58:47;1.20;99.90
1686;DHT22;840;47.980;7.830;2023-03-01T09:01:18;1.30;99.90
1686;DHT22;840;47.980;7.830;2023-03-01T09:03:59;1.30;99.90
1686;DHT22;840;47.980;7.830;2023-03-01T09:06:29;1.30;99.90
1686;DHT22;840;47.980;7.830;2023-03-01T09:08:57;1.30;99.90
1686;DHT22;840;47.980;7.830;2023-03-01T09:11:26;1.40;99.90
1686;DHT22;840;47.980;7.830;2023-03-01T09:13:55;1.40;99.90
1686;DHT22;840;47.980;7.830;2023-03-01T09:16:24;1.40;99.90
1686;DHT22;840;47.980;7.830;2023-03-01T09:18:53;1.40;99.90
1686;DHT22;840;47.980;7.830;2023-03-01T09:21:22;1.40;99.90
1686;DHT22;840;47.980;7.830;2023-03-01T09:23:49;1.40;99.90
1686;DHT22;840;47.980;7.830;2023-03-01T09:26:17;1.40;99.90
1686;DHT22;840;47.980;7.830;2023-03-01T09:28:45;1.40;99.90
1686;DHT22;840;47.980;7.830;2023-03-01T09:31:13;1.40;99.90
1686;DHT22;840;47.980;7.830;2023-03-01T09:33:45;1.50;99.90
1686;DHT22;840;47.980;7.830;2023-03-01T09:36:14;1.60;99.90
1686;DHT22;840;47.980;7.830;2023-03-01T09:38:42;1.70;99.90
1686;DHT22;840;47.980;7.830;2023-03-01T09:41:11;1.80;99.90
1686;DHT22;840;47.980;7.830;2023-03-01T09:44:01;1.70;99.90
1686;DHT22;840;47.980;7.830;2023-03-01T09:46:33;1.70;99.90
1686;DHT22;840;47.980;7.830;2023-03-01T09:49:09;1.70;99.90
1686;DHT22;840;47.980;7.830;2023-03-01T09:51:37;1.70;99.90
1686;DHT22;840;47.980;7.830;2023-03-01T09:54:08;1.90;99.90
1686;DHT22;840;47.980;7.830;2023-03-01T09:56:40;2.00;99.90
1686;DHT22;840;47.980;7.830;2023-03-01T09:59:18;2.20;99.90
1686;DHT22;840;47.980;7.830;2023-03-01T10:01:54;2.10;99.90
1686;DHT22;840;47.980;7.830;2023-03-01T10:04:40;2.10;99.90
1686;DHT22;840;47.980;7.830;2023-03-01T10:07:28;2.00;99.90
1686;DHT22;840;47.980;7.830;2023-03-01T10:09:58;1.90;99.90
1686;DHT22;840;47.980;7.830;2023-03-01T10:12:34;1.90;99.90
1686;DHT22;840;47.980;7.830;2023-03-01T10:15:05;2.00;99.90
1686;DHT22;840;47.980;7.830;2023-03-01T10:17:39;2.10;99.90
1686;DHT22;840;47.980;7.830;2023-03-01T10:20:19;2.20;99.90
1686;DHT22;840;47.980;7.830;2023-03-01T10:22:48;2.30;99.90
1686;DHT22;840;47.980;7.830;2023-03-01T10:25:39;2.40;99.90
1686;DHT22;840;47.980;7.830;2023-03-01T10:28:17;2.60;99.90
1686;DHT22;840;47.980;7.830;2023-03-01T10:30:47;2.60;99.90
1686;DHT22;840;47.980;7.830;2023-03-01T10:33:19;2.60;99.90
1686;DHT22;840;47.980;7.830;2023-03-01T10:35:54;2.60;99.90
1686;DHT22;840;47.980;7.830;2023-03-01T10:38:21;2.70;99.90
1686;DHT22;840;47.980;7.830;2023-03-01T10:40:55;2.90;99.90
1686;DHT22;840;47.980;7.830;2023-03-01T10:43:23;3.00;99.90
1686;DHT22;840;47.980;7.830;2023-03-01T10:45:51;3.10;99.90
1686;DHT22;840;47.980;7.830;2023-03-01T10:48:19;3.10;99.90
1686;DHT22;840;47.980;7.830;2023-03-01T10:50:50;3.10;99.90
1686;DHT22;840;47.980;7.830;2023-03-01T10:53:25;3.20;99.90
1686;DHT22;840;47.980;7.830;2023-03-01T10:55:59;3.30;99.90
1686;DHT22;840;47.980;7.830;2023-03-01T10:58:27;3.20;99.90
1686;DHT22;840;47.980;7.830;2023-03-01T11:00:56;3.30;99.90
1686;DHT22;840;47.980;7.830;2023-03-01T11:03:25;3.20;99.90
1686;DHT22;840;47.980;7.830;2023-03-01T11:06:02;3.30;99.90
1686;DHT22;840;47.980;7.830;2023-03-01T11:08:33;3.40;99.90
1686;DHT22;840;47.980;7.830;2023-03-01T11:11:06;3.50;99.90
1686;DHT22;840;47.980;7.830;2023-03-01T11:13:49;3.40;99.90
1686;DHT22;840;47.980;7.830;2023-03-01T11:16:24;3.50;99.90
1686;DHT22;840;47.980;7.830;2023-03-01T11:19:00;3.50;99.90
1686;DHT22;840;47.980;7.830;2023-03-01T11:21:30;3.60;99.90
1686;DHT22;840;47.980;7.830;2023-03-01T11:24:03;3.70;99.90
1686;DHT22;840;47.980;7.830;2023-03-01T11:26:34;3.80;99.90
1686;DHT22;840;47.980;7.830;2023-03-01T11:29:06;3.80;99.90
1686;DHT22;840;47.980;7.830;2023-03-01T11:31:39;3.80;99.90
1686;DHT22;840;47.980;7.830;2023-03-01T11:34:11;3.90;99.90
1686;DHT22;840;47.980;7.830;2023-03-01T11:36:42;4.00;99.90
1686;DHT22;840;47.980;7.830;2023-03-01T11:39:18;4.00;99.90
1686;DHT22;840;47.980;7.830;2023-03-01T11:41:49;4.00;99.90
1686;DHT22;840;47.980;7.830;2023-03-01T11:44:24;4.00;99.90
1686;DHT22;840;47.980;7.830;2023-03-01T11:47:12;4.00;99.90
1686;DHT22;840;47.980;7.830;2023-03-01T11:50:07;4.00;99.90
1686;DHT22;840;47.980;7.830;2023-03-01T11:52:41;4.10;99.90
1686;DHT22;840;47.980;7.830;2023-03-01T11:55:27;4.20;99.90
1686;DHT22;840;47.980;7.830;2023-03-01T11:58:13;4.30;99.90
1686;DHT22;840;47.980;7.830;2023-03-01T12:00:57;4.40;99.90
1686;DHT22;840;47.980;7.830;2023-03-01T12:03:41;4.50;99.90
1686;DHT22;840;47.980;7.830;2023-03-01T12:06:32;4.60;99.90
1686;DHT22;840;47.980;7.830;2023-03-01T12:09:12;4.60;99.90
1686;DHT22;840;47.980;7.830;2023-03-01T12:12:00;4.70;99.90
1686;DHT22;840;47.980;7.830;2023-03-01T12:14:48;4.80;99.90
1686;DHT22;840;47.980;7.830;2023-03-01T12:17:40;4.80;99.90
1686;DHT22;840;47.980;7.830;2023-03-01T12:20:17;4.90;99.90
1686;DHT22;840;47.980;7.830;2023-03-01T12:23:03;5.00;99.90
1686;DHT22;840;47.980;7.830;2023-03-01T12:25:39;5.10;99.90
1686;DHT22;840;47.980;7.830;2023-03-01T12:31:17;5.30;99.90
1686;DHT22;840;47.980;7.830;2023-03-01T12:33:56;5.50;99.90
1686;DHT22;840;47.980;7.830;2023-03-01T12:36:50;5.60;99.90
1686;DHT22;840;47.980;7.830;2023-03-01T12:39:42;5.80;99.90
1686;DHT22;840;47.980;7.830;2023-03-01T12:42:25;5.90;99.90
1686;DHT22;840;47.980;7.830;2023-03-01T12:45:06;6.00;99.90
1686;DHT22;840;47.980;7.830;2023-03-01T12:47:55;6.00;99.90
1686;DHT22;840;47.980;7.830;2023-03-01T12:50:32;6.00;99.90
1686;DHT22;840;47.980;7.830;2023-03-01T12:53:03;6.10;99.90
1686;DHT22;840;47.980;7.830;2023-03-01T12:55:32;6.20;99.90
1686;DHT22;840;47.980;7.830;2023-03-01T12:58:06;6.40;99.90
1686;DHT22;840;47.980;7.830;2023-03-01T13:00:41;6.60;99.90
1686;DHT22;840;47.980;7.830;2023-03-01T13:03:19;6.80;99.90
1686;DHT22;840;47.980;7.830;2023-03-01T13:06:02;7.00;99.90
1686;DHT22;840;47.980;7.830;2023-03-01T13:08:36;7.30;99.90
1686;DHT22;840;47.980;7.830;2023-03-01T13:11:15;7.50;99.90
1686;DHT22;840;47.980;7.830;2023-03-01T13:13:42;7.70;99.90
1686;DHT22;840;47.980;7.830;2023-03-01T13:19:18;8.00;99.90
1686;DHT22;840;47.980;7.830;2023-03-01T13:21:47;8.10;99.90
1686;DHT22;840;47.980;7.830;2023-03-01T13:24:29;8.10;99.90
1686;DHT22;840;47.980;7.830;2023-03-01T13:27:22;8.10;99.90
1686;DHT22;840;47.980;7.830;2023-03-01T13:29:56;8.00;99.90
1686;DHT22;840;47.980;7.830;2023-03-01T13:32:26;8.10;99.90
1686;DHT22;840;47.980;7.830;2023-03-01T13:34:59;8.20;99.90
1686;DHT22;840;47.980;7.830;2023-03-01T13:37:34;8.30;99.90
1686;DHT22;840;47.980;7.830;2023-03-01T13:42:51;8.00;99.90
1686;DHT22;840;47.980;7.830;2023-03-01T13:45:25;8.00;99.90
1686;DHT22;840;47.980;7.830;2023-03-01T13:48:02;8.10;99.90
1686;DHT22;840;47.980;7.830;2023-03-01T13:50:35;8.10;99.90
1686;DHT22;840;47.980;7.830;2023-03-01T13:53:06;8.20;99.90
1686;DHT22;840;47.980;7.830;2023-03-01T13:55:38;8.40;99.90
1686;DHT22;840;47.980;7.830;2023-03-01T13:58:16;8.60;99.90
1686;DHT22;840;47.980;7.830;2023-03-01T14:00:45;8.70;99.90
1686;DHT22;840;47.980;7.830;2023-03-01T14:03:15;8.80;99.90
1686;DHT22;840;47.980;7.830;2023-03-01T14:05:58;8.90;99.90
1686;DHT22;840;47.980;7.830;2023-03-01T14:08:27;9.10;99.90
1686;DHT22;840;47.980;7.830;2023-03-01T14:11:07;9.30;99.90
1686;DHT22;840;47.980;7.830;2023-03-01T14:13:48;9.50;99.90
1686;DHT22;840;47.980;7.830;2023-03-01T14:16:27;9.70;98.50
1686;DHT22;840;47.980;7.830;2023-03-01T14:19:07;9.90;98.30
1686;DHT22;840;47.980;7.830;2023-03-01T14:21:40;10.10;97.50
1686;DHT22;840;47.980;7.830;2023-03-01T14:24:16;10.30;97.30
1686;DHT22;840;47.980;7.830;2023-03-01T14:26:44;10.50;97.00
1686;DHT22;840;47.980;7.830;2023-03-01T14:29:24;10.50;95.40
1686;DHT22;840;47.980;7.830;2023-03-01T14:31:51;10.50;95.40
1686;DHT22;840;47.980;7.830;2023-03-01T14:34:20;10.50;95.60
1686;DHT22;840;47.980;7.830;2023-03-01T14:36:49;10.60;95.30
1686;DHT22;840;47.980;7.830;2023-03-01T14:39:17;10.60;95.10
1686;DHT22;840;47.980;7.830;2023-03-01T14:41:45;10.60;94.60
1686;DHT22;840;47.980;7.830;2023-03-01T14:44:18;10.70;94.50
1686;DHT22;840;47.980;7.830;2023-03-01T14:46:52;10.80;93.90
1686;DHT22;840;47.980;7.830;2023-03-01T14:49:22;10.90;93.70
1686;DHT22;840;47.980;7.830;2023-03-01T14:51:54;10.80;92.90
1686;DHT22;840;47.980;7.830;2023-03-01T14:54:25;10.70;93.60
1686;DHT22;840;47.980;7.830;2023-03-01T14:56:57;10.80;92.90
1686;DHT22;840;47.980;7.830;2023-03-01T14:59:25;10.80;93.10
1686;DHT22;840;47.980;7.830;2023-03-01T15:01:55;10.80;93.40
1686;DHT22;840;47.980;7.830;2023-03-01T15:04:24;10.80;93.40
1686;DHT22;840;47.980;7.830;2023-03-01T15:06:53;10.90;92.90
1686;DHT22;840;47.980;7.830;2023-03-01T15:09:21;11.00;92.90
1686;DHT22;840;47.980;7.830;2023-03-01T15:11:48;11.00;92.80
1686;DHT22;840;47.980;7.830;2023-03-01T15:14:26;10.80;92.60
1686;DHT22;840;47.980;7.830;2023-03-01T15:16:55;10.80;92.70
1686;DHT22;840;47.980;7.830;2023-03-01T15:19:24;10.80;92.60
1686;DHT22;840;47.980;7.830;2023-03-01T15:21:55;10.80;91.90
1686;DHT22;840;47.980;7.830;2023-03-01T15:24:25;10.70;92.60
1686;DHT22;840;47.980;7.830;2023-03-01T15:26:55;10.40;93.10
1686;DHT22;840;47.980;7.830;2023-03-01T15:29:25;10.10;94.00
1686;DHT22;840;47.980;7.830;2023-03-01T15:31:56;9.80;95.20
1686;DHT22;840;47.980;7.830;2023-03-01T15:34:25;9.60;95.50
1686;DHT22;840;47.980;7.830;2023-03-01T15:36:56;9.10;95.90
1686;DHT22;840;47.980;7.830;2023-03-01T15:39:32;8.80;97.00
1686;DHT22;840;47.980;7.830;2023-03-01T15:42:03;8.60;97.50
1686;DHT22;840;47.980;7.830;2023-03-01T15:44:34;8.50;97.90
1686;DHT22;840;47.980;7.830;2023-03-01T15:47:07;8.20;98.40
1686;DHT22;840;47.980;7.830;2023-03-01T15:49:38;8.20;98.80
1686;DHT22;840;47.980;7.830;2023-03-01T15:52:12;8.10;99.00
1686;DHT22;840;47.980;7.830;2023-03-01T15:54:40;8.10;99.10
1686;DHT22;840;47.980;7.830;2023-03-01T15:57:10;8.00;99.30
1686;DHT22;840;47.980;7.830;2023-03-01T15:59:38;7.90;99.40
1686;DHT22;840;47.980;7.830;2023-03-01T16:02:09;7.80;99.50
1686;DHT22;840;47.980;7.830;2023-03-01T16:04:36;7.60;99.60
1686;DHT22;840;47.980;7.830;2023-03-01T16:07:03;7.60;99.90
1686;DHT22;840;47.980;7.830;2023-03-01T16:09:32;7.50;99.90
1686;DHT22;840;47.980;7.830;2023-03-01T16:11:58;7.50;99.90
1686;DHT22;840;47.980;7.830;2023-03-01T16:14:27;7.40;99.90
1686;DHT22;840;47.980;7.830;2023-03-01T16:16:55;7.30;99.90
1686;DHT22;840;47.980;7.830;2023-03-01T16:19:23;7.30;99.90
1686;DHT22;840;47.980;7.830;2023-03-01T16:21:50;7.30;99.90
1686;DHT22;840;47.980;7.830;2023-03-01T16:24:17;7.30;99.90
1686;DHT22;840;47.980;7.830;2023-03-01T16:26:45;7.20;99.90
1686;DHT22;840;47.980;7.830;2023-03-01T16:29:13;7.20;99.90
1686;DHT22;840;47.980;7.830;2023-03-01T16:31:41;7.10;99.90
1686;DHT22;840;47.980;7.830;2023-03-01T16:34:08;7.20;99.90
1686;DHT22;840;47.980;7.830;2023-03-01T16:36:35;7.20;99.90
1686;DHT22;840;47.980;7.830;2023-03-01T16:39:02;7.10;99.90
1686;DHT22;840;47.980;7.830;2023-03-01T16:41:30;7.20;99.90
1686;DHT22;840;47.980;7.830;2023-03-01T16:43:58;7.30;99.90
1686;DHT22;840;47.980;7.830;2023-03-01T16:46:27;7.30;99.90
1686;DHT22;840;47.980;7.830;2023-03-01T16:48:55;7.40;99.90
1686;DHT22;840;47.980;7.830;2023-03-01T16:51:23;7.30;99.90
1686;DHT22;840;47.980;7.830;2023-03-01T16:53:51;7.40;99.90
1686;DHT22;840;47.980;7.830;2023-03-01T16:56:18;7.40;99.90
1686;DHT22;840;47.980;7.830;2023-03-01T16:58:46;7.30;99.90
1686;DHT22;840;47.980;7.830;2023-03-01T17:01:16;7.30;99.90
1686;DHT22;840;47.980;7.830;2023-03-01T17:03:43;7.30;99.90
1686;DHT22;840;47.980;7.830;2023-03-01T17:06:13;7.40;99.90
1686;DHT22;840;47.980;7.830;2023-03-01T17:08:40;7.40;99.90
1686;DHT22;840;47.980;7.830;2023-03-01T17:11:09;7.40;99.90
1686;DHT22;840;47.980;7.830;2023-03-01T17:13:37;7.40;99.90
1686;DHT22;840;47.980;7.830;2023-03-01T17:16:06;7.50;99.90
1686;DHT22;840;47.980;7.830;2023-03-01T17:18:35;7.50;99.90
1686;DHT22;840;47.980;7.830;2023-03-01T17:21:03;7.50;99.90
1686;DHT22;840;47.980;7.830;2023-03-01T17:23:31;7.50;99.90
1686;DHT22;840;47.980;7.830;2023-03-01T17:25:59;7.50;99.90